Time;durP1;ratioP1;P1;durP2;ratioP2;P2;SDS_P1;SDS_P2;PMS_P1;PMS_P2;Temp;Humidity;BMP_temperature;BMP_pressure;BME280_temperature;BME280_humidity;BME280_pressure;Samples;Min_cycle;Max_cycle;Signal;HPM_P1;HPM_P2
2022/07/11 00:00:03;;;;;;;4.15;1.80;;;;;;;;;;5050450;28;20044;-65
2022/07/11 00:02:30;;;;;;;4.95;2.10;;;;;;;;;;5052308;28;20522;-65
2022/07/11 00:04:56;;;;;;;5.15;2.00;;;;;;;;;;5069059;28;20403;-65
2022/07/11 00:07:22;;;;;;;6.70;2.10;;;;;;;;;;5051190;28;20045;-65
2022/07/11 00:09:48;;;;;;;7.47;1.95;;;;;;;;;;5040029;28;20490;-65
2022/07/11 00:12:14;;;;;;;5.32;2.10;;;;;;;;;;5051329;28;20041;-65
2022/07/11 00:14:40;;;;;;;4.28;2.00;;;;;;;;;;5044209;28;20090;-65
2022/07/11 00:17:08;;;;;;;5.72;2.08;;;;;;;;;;5064023;28;20478;-65
2022/07/11 00:19:34;;;;;;;3.65;1.63;;;;;;;;;;5052459;28;20414;-65
2022/07/11 00:22:00;;;;;;;4.45;1.83;;;;;;;;;;5051648;28;20071;-65
2022/07/11 00:24:26;;;;;;;3.83;1.92;;;;;;;;;;5050131;28;20032;-65
2022/07/11 00:26:52;;;;;;;6.63;1.90;;;;;;;;;;5032163;28;20091;-65
2022/07/11 00:29:18;;;;;;;4.45;2.15;;;;;;;;;;5055679;28;20056;-65
2022/07/11 00:31:45;;;;;;;3.38;2.40;;;;;;;;;;5070966;28;20075;-65
2022/07/11 00:34:11;;;;;;;6.13;2.50;;;;;;;;;;5051105;28;20056;-65
2022/07/11 00:36:37;;;;;;;7.25;2.30;;;;;;;;;;5051453;28;20040;-65
2022/07/11 00:39:03;;;;;;;8.05;2.50;;;;;;;;;;5051655;28;20037;-65
2022/07/11 00:41:29;;;;;;;5.25;2.50;;;;;;;;;;5050758;28;20041;-65
2022/07/11 00:43:56;;;;;;;6.30;2.45;;;;;;;;;;5064486;28;20067;-64
2022/07/11 00:46:23;;;;;;;6.95;2.40;;;;;;;;;;5051519;28;20044;-64
2022/07/11 00:48:49;;;;;;;7.07;2.53;;;;;;;;;;5051830;28;20120;-64
2022/07/11 00:51:16;;;;;;;4.88;2.70;;;;;;;;;;5051577;28;20052;-65
2022/07/11 00:53:42;;;;;;;5.35;2.40;;;;;;;;;;5049472;28;20033;-64
2022/07/11 00:56:09;;;;;;;3.40;2.45;;;;;;;;;;5048657;28;20041;-64
2022/07/11 00:58:36;;;;;;;11.60;2.80;;;;;;;;;;5049624;28;20048;-64
2022/07/11 01:01:02;;;;;;;6.00;2.53;;;;;;;;;;5055268;28;20064;-64
2022/07/11 01:03:28;;;;;;;7.78;2.50;;;;;;;;;;5065098;28;20043;-64
2022/07/11 01:05:54;;;;;;;7.68;2.78;;;;;;;;;;5050035;28;20091;-64
2022/07/11 01:08:20;;;;;;;6.55;2.50;;;;;;;;;;5050454;28;20090;-64
2022/07/11 01:10:47;;;;;;;3.97;1.95;;;;;;;;;;5057245;28;20071;-64
2022/07/11 01:13:13;;;;;;;4.60;2.55;;;;;;;;;;5055740;28;20041;-64
2022/07/11 01:15:39;;;;;;;6.50;2.58;;;;;;;;;;5051126;28;20041;-64
2022/07/11 01:18:05;;;;;;;3.45;2.50;;;;;;;;;;5053752;28;20391;-64
2022/07/11 01:20:31;;;;;;;7.47;3.00;;;;;;;;;;5053460;28;20482;-64
2022/07/11 01:23:02;;;;;;;7.20;3.30;;;;;;;;;;5055991;28;20045;-64
2022/07/11 01:25:30;;;;;;;5.20;2.60;;;;;;;;;;5051672;28;20080;-64
2022/07/11 01:27:57;;;;;;;5.15;3.05;;;;;;;;;;5050942;28;20037;-64
2022/07/11 01:30:23;;;;;;;7.07;3.20;;;;;;;;;;5049890;28;20419;-64
2022/07/11 01:32:51;;;;;;;9.35;2.90;;;;;;;;;;5050949;28;20147;-65
2022/07/11 01:35:17;;;;;;;7.63;3.40;;;;;;;;;;5046735;28;20178;-64
2022/07/11 01:37:43;;;;;;;6.93;3.13;;;;;;;;;;5053079;28;20064;-64
2022/07/11 01:40:10;;;;;;;8.73;3.00;;;;;;;;;;5059337;28;20040;-64
2022/07/11 01:42:36;;;;;;;5.95;3.60;;;;;;;;;;5046775;28;20063;-64
2022/07/11 01:45:02;;;;;;;7.53;3.20;;;;;;;;;;5071279;28;20040;-64
2022/07/11 01:47:28;;;;;;;5.25;3.25;;;;;;;;;;5062913;28;20045;-64
2022/07/11 01:49:55;;;;;;;6.32;3.30;;;;;;;;;;5050442;28;20261;-64
2022/07/11 01:52:21;;;;;;;6.78;3.22;;;;;;;;;;5049465;28;20045;-64
2022/07/11 01:54:47;;;;;;;7.60;2.90;;;;;;;;;;5055584;28;20040;-64
2022/07/11 01:57:13;;;;;;;4.93;3.28;;;;;;;;;;5065608;28;20037;-64
2022/07/11 01:59:39;;;;;;;6.18;2.90;;;;;;;;;;5049414;28;20064;-64
2022/07/11 02:02:05;;;;;;;4.18;3.10;;;;;;;;;;5043601;28;20064;-65
2022/07/11 02:04:31;;;;;;;6.10;3.15;;;;;;;;;;5049057;28;20119;-64
2022/07/11 02:06:57;;;;;;;5.03;3.08;;;;;;;;;;5049523;28;20076;-64
2022/07/11 02:09:23;;;;;;;4.88;2.88;;;;;;;;;;5073336;28;20040;-64
2022/07/11 02:11:49;;;;;;;6.25;2.80;;;;;;;;;;5061214;28;20098;-64
2022/07/11 02:14:15;;;;;;;4.75;2.63;;;;;;;;;;5053819;28;20037;-64
2022/07/11 02:16:42;;;;;;;4.55;2.72;;;;;;;;;;5054479;28;20049;-64
2022/07/11 02:19:10;;;;;;;5.60;2.67;;;;;;;;;;5053574;28;20128;-64
2022/07/11 02:21:36;;;;;;;5.18;2.95;;;;;;;;;;5051354;28;20048;-65
2022/07/11 02:24:02;;;;;;;4.50;2.88;;;;;;;;;;5057118;28;20508;-64
2022/07/11 02:26:28;;;;;;;5.57;3.35;;;;;;;;;;5055920;28;20045;-64
2022/07/11 02:28:54;;;;;;;5.15;3.15;;;;;;;;;;5053553;28;20434;-64
2022/07/11 02:31:21;;;;;;;4.15;2.65;;;;;;;;;;5053919;28;20061;-64
2022/07/11 02:33:47;;;;;;;4.05;3.03;;;;;;;;;;5054635;28;20037;-64
2022/07/11 02:36:13;;;;;;;5.07;2.90;;;;;;;;;;5052777;28;20410;-64
2022/07/11 02:38:39;;;;;;;5.72;3.15;;;;;;;;;;5069212;28;20375;-65
2022/07/11 02:41:05;;;;;;;5.85;3.80;;;;;;;;;;5061428;28;20051;-65
2022/07/11 02:43:31;;;;;;;5.32;3.90;;;;;;;;;;5061292;28;20116;-64
2022/07/11 02:45:57;;;;;;;5.97;3.33;;;;;;;;;;5062944;28;20383;-64
2022/07/11 02:48:23;;;;;;;6.32;3.85;;;;;;;;;;5052820;28;20041;-65
2022/07/11 02:50:49;;;;;;;6.10;3.97;;;;;;;;;;5050386;28;20808;-64
2022/07/11 02:53:15;;;;;;;5.93;4.00;;;;;;;;;;5057447;28;20045;-65
2022/07/11 02:55:41;;;;;;;7.50;3.85;;;;;;;;;;5053888;28;20044;-65
2022/07/11 02:58:07;;;;;;;6.47;3.90;;;;;;;;;;5052705;28;20037;-65
2022/07/11 03:00:34;;;;;;;6.05;3.90;;;;;;;;;;5053983;28;20036;-65
2022/07/11 03:03:01;;;;;;;8.23;4.60;;;;;;;;;;5053561;28;20079;-65
2022/07/11 03:05:27;;;;;;;9.18;4.65;;;;;;;;;;5054785;28;20506;-65
2022/07/11 03:07:53;;;;;;;9.93;4.45;;;;;;;;;;5061548;28;20032;-65
2022/07/11 03:10:19;;;;;;;10.90;4.63;;;;;;;;;;5053831;28;20593;-65
2022/07/11 03:12:45;;;;;;;7.40;4.63;;;;;;;;;;5047531;28;20037;-65
2022/07/11 03:15:12;;;;;;;7.80;4.68;;;;;;;;;;5050024;28;20133;-65
2022/07/11 03:17:38;;;;;;;6.53;4.20;;;;;;;;;;5051452;28;20041;-65
2022/07/11 03:20:05;;;;;;;9.07;4.60;;;;;;;;;;5068700;28;20089;-65
2022/07/11 03:22:31;;;;;;;9.15;4.85;;;;;;;;;;5061615;28;20048;-65
2022/07/11 03:24:57;;;;;;;7.28;4.35;;;;;;;;;;5052771;28;20037;-65
2022/07/11 03:27:24;;;;;;;8.57;4.50;;;;;;;;;;5053104;28;20483;-65
2022/07/11 03:29:50;;;;;;;11.25;4.57;;;;;;;;;;5052032;28;20183;-65
2022/07/11 03:32:20;;;;;;;8.90;4.80;;;;;;;;;;5052691;28;20065;-65
2022/07/11 03:35:40;;;;;;;7.28;4.28;;;;;;;;;;5065988;28;20383;-65
2022/07/11 03:37:32;;;;;;;6.95;5.03;;;;;;;;;;5064049;28;20518;-65
2022/07/11 03:39:58;;;;;;;7.05;4.53;;;;;;;;;;5053511;28;20122;-65
2022/07/11 03:42:24;;;;;;;8.55;4.53;;;;;;;;;;5051981;28;20048;-65
2022/07/11 03:44:51;;;;;;;7.15;4.43;;;;;;;;;;5050669;28;20045;-65
2022/07/11 03:47:17;;;;;;;5.40;4.25;;;;;;;;;;5052474;28;20549;-65
2022/07/11 03:49:43;;;;;;;8.15;4.25;;;;;;;;;;5054074;28;20059;-65
2022/07/11 03:52:09;;;;;;;6.22;4.47;;;;;;;;;;5053181;28;20064;-65
2022/07/11 03:54:35;;;;;;;6.55;4.18;;;;;;;;;;5052193;28;20133;-65
2022/07/11 03:57:02;;;;;;;7.18;4.28;;;;;;;;;;5052643;28;20051;-65
2022/07/11 03:59:28;;;;;;;6.88;4.00;;;;;;;;;;5051374;28;20048;-65
2022/07/11 04:01:54;;;;;;;9.23;4.10;;;;;;;;;;5048095;28;20398;-65
2022/07/11 04:04:20;;;;;;;6.22;4.10;;;;;;;;;;5048074;28;20072;-65
2022/07/11 04:06:46;;;;;;;8.93;4.03;;;;;;;;;;5051391;28;20037;-65
2022/07/11 04:09:12;;;;;;;8.23;3.75;;;;;;;;;;5052542;28;20033;-65
2022/07/11 04:11:38;;;;;;;5.50;3.63;;;;;;;;;;5052369;28;20044;-65
2022/07/11 04:14:04;;;;;;;8.68;4.25;;;;;;;;;;5051619;28;20120;-65
2022/07/11 04:16:30;;;;;;;7.22;4.35;;;;;;;;;;5054854;28;20528;-65
2022/07/11 04:18:56;;;;;;;8.15;3.55;;;;;;;;;;5066605;28;20037;-65
2022/07/11 04:21:22;;;;;;;6.63;3.97;;;;;;;;;;5054009;28;20033;-65
2022/07/11 04:23:48;;;;;;;7.38;3.80;;;;;;;;;;5051529;28;20029;-65
2022/07/11 04:26:14;;;;;;;7.30;3.70;;;;;;;;;;5053188;28;20048;-65
2022/07/11 04:28:40;;;;;;;5.82;3.80;;;;;;;;;;5049736;28;20040;-64
2022/07/11 04:31:06;;;;;;;5.38;3.55;;;;;;;;;;5057976;28;20036;-65
2022/07/11 04:33:32;;;;;;;6.10;3.63;;;;;;;;;;5052703;28;20071;-65
2022/07/11 04:35:58;;;;;;;7.30;3.10;;;;;;;;;;5043234;28;20041;-64
2022/07/11 04:38:25;;;;;;;5.32;2.90;;;;;;;;;;5050739;28;20044;-64
2022/07/11 04:40:51;;;;;;;3.85;2.83;;;;;;;;;;5051224;28;20051;-64
2022/07/11 04:43:17;;;;;;;4.72;2.67;;;;;;;;;;5051441;28;20040;-65
2022/07/11 04:45:43;;;;;;;6.50;2.38;;;;;;;;;;5064277;28;20444;-64
2022/07/11 04:48:09;;;;;;;4.18;2.70;;;;;;;;;;5063825;28;20383;-64
2022/07/11 04:50:35;;;;;;;6.05;2.92;;;;;;;;;;5045921;28;20091;-64
2022/07/11 04:53:02;;;;;;;5.45;3.28;;;;;;;;;;5046300;28;20537;-64
2022/07/11 04:55:28;;;;;;;5.95;3.20;;;;;;;;;;5058609;28;20041;-64
2022/07/11 04:57:54;;;;;;;7.25;3.65;;;;;;;;;;5051376;28;20043;-64
2022/07/11 05:00:20;;;;;;;7.63;3.67;;;;;;;;;;5051543;28;20562;-65
2022/07/11 05:02:46;;;;;;;5.55;3.35;;;;;;;;;;5096861;22;20073;-61
2022/07/11 05:05:12;;;;;;;5.63;3.22;;;;;;;;;;5130919;27;20039;-61
2022/07/11 05:07:38;;;;;;;7.85;3.88;;;;;;;;;;5113315;27;20038;-61
2022/07/11 05:10:05;;;;;;;5.07;3.28;;;;;;;;;;5102242;28;20039;-61
2022/07/11 05:12:31;;;;;;;6.85;3.65;;;;;;;;;;5119378;27;20039;-61
2022/07/11 05:15:00;;;;;;;4.93;3.10;;;;;;;;;;5094465;28;20043;-61
2022/07/11 05:17:26;;;;;;;5.88;3.45;;;;;;;;;;5112938;28;20065;-61
2022/07/11 05:19:52;;;;;;;6.20;3.28;;;;;;;;;;5112320;27;20031;-61
2022/07/11 05:22:18;;;;;;;5.55;3.20;;;;;;;;;;5099109;28;20105;-61
2022/07/11 05:24:44;;;;;;;4.18;2.78;;;;;;;;;;5104955;28;20090;-61
2022/07/11 05:27:11;;;;;;;5.90;3.20;;;;;;;;;;5085670;28;20393;-61
2022/07/11 05:29:37;;;;;;;3.78;2.70;;;;;;;;;;5110205;28;20042;-61
2022/07/11 05:32:03;;;;;;;2.75;2.20;;;;;;;;;;5107996;28;20039;-61
2022/07/11 05:34:29;;;;;;;3.88;2.50;;;;;;;;;;5100710;28;20039;-61
2022/07/11 05:36:55;;;;;;;3.80;2.50;;;;;;;;;;5109547;28;20050;-61
2022/07/11 05:39:21;;;;;;;2.85;1.90;;;;;;;;;;5100615;28;20052;-61
2022/07/11 05:41:50;;;;;;;2.20;1.90;;;;;;;;;;5109874;28;20039;-62
2022/07/11 05:44:17;;;;;;;2.72;2.10;;;;;;;;;;5109402;28;20097;-62
2022/07/11 05:46:43;;;;;;;4.50;1.90;;;;;;;;;;5104213;28;20044;-62
2022/07/11 05:49:09;;;;;;;1.88;1.50;;;;;;;;;;5108053;28;20057;-62
2022/07/11 05:51:36;;;;;;;3.35;1.73;;;;;;;;;;5082746;28;20721;-62
2022/07/11 05:54:02;;;;;;;3.58;1.40;;;;;;;;;;5086206;28;20051;-62
2022/07/11 05:56:28;;;;;;;5.75;1.50;;;;;;;;;;5110324;28;20040;-62
2022/07/11 05:58:54;;;;;;;1.67;1.25;;;;;;;;;;5103413;28;20050;-62
2022/07/11 06:01:21;;;;;;;2.53;1.27;;;;;;;;;;5104430;28;20499;-63
2022/07/11 06:03:47;;;;;;;1.75;1.40;;;;;;;;;;5099124;28;20032;-62
2022/07/11 06:06:13;;;;;;;2.90;1.42;;;;;;;;;;5104729;28;20126;-62
2022/07/11 06:08:42;;;;;;;2.05;1.30;;;;;;;;;;5105243;28;20086;-63
2022/07/11 06:11:10;;;;;;;3.00;1.27;;;;;;;;;;5091722;28;20067;-62
2022/07/11 06:13:37;;;;;;;1.73;1.27;;;;;;;;;;5107965;28;20055;-62
2022/07/11 06:16:03;;;;;;;2.55;1.40;;;;;;;;;;5108385;28;20118;-62
2022/07/11 06:18:29;;;;;;;2.72;1.63;;;;;;;;;;5106936;28;20450;-62
2022/07/11 06:20:55;;;;;;;2.47;1.20;;;;;;;;;;5103535;28;20031;-63
2022/07/11 06:23:21;;;;;;;1.75;1.05;;;;;;;;;;5100288;28;20058;-62
2022/07/11 06:25:47;;;;;;;2.03;1.30;;;;;;;;;;5103706;28;21777;-63
2022/07/11 06:28:13;;;;;;;3.85;1.02;;;;;;;;;;5107707;28;20032;-62
2022/07/11 06:30:39;;;;;;;2.15;1.38;;;;;;;;;;5102903;28;20062;-62
2022/07/11 06:33:05;;;;;;;1.20;0.93;;;;;;;;;;5102412;28;20047;-62
2022/07/11 06:35:31;;;;;;;3.10;1.30;;;;;;;;;;5107005;28;20048;-63
2022/07/11 06:37:57;;;;;;;1.15;0.98;;;;;;;;;;5111413;28;20039;-62
2022/07/11 06:40:23;;;;;;;1.38;1.10;;;;;;;;;;5089932;28;20118;-63
2022/07/11 06:42:50;;;;;;;1.67;0.90;;;;;;;;;;5104729;28;20088;-63
2022/07/11 06:45:16;;;;;;;1.58;0.73;;;;;;;;;;5107985;28;20381;-62
2022/07/11 06:47:42;;;;;;;2.33;0.80;;;;;;;;;;5105990;28;20405;-62
2022/07/11 06:50:08;;;;;;;0.93;0.70;;;;;;;;;;5100854;28;20043;-62
2022/07/11 06:52:34;;;;;;;1.50;0.63;;;;;;;;;;5108035;28;20047;-62
2022/07/11 06:55:00;;;;;;;2.15;0.60;;;;;;;;;;5112201;28;20374;-62
2022/07/11 06:57:27;;;;;;;1.48;0.85;;;;;;;;;;5102455;28;20043;-63
2022/07/11 06:59:53;;;;;;;0.80;0.50;;;;;;;;;;5110649;28;20031;-63
2022/07/11 07:02:19;;;;;;;2.30;0.60;;;;;;;;;;5105363;28;20092;-62
2022/07/11 07:04:45;;;;;;;1.20;0.70;;;;;;;;;;5114068;28;20067;-63
2022/07/11 07:07:11;;;;;;;1.20;0.38;;;;;;;;;;5112411;28;20489;-63
2022/07/11 07:09:37;;;;;;;1.38;0.50;;;;;;;;;;5107119;28;20083;-63
2022/07/11 07:12:04;;;;;;;0.75;0.52;;;;;;;;;;5106011;28;20043;-62
2022/07/11 07:14:29;;;;;;;1.25;0.60;;;;;;;;;;5111112;27;20052;-62
2022/07/11 07:16:55;;;;;;;0.85;0.50;;;;;;;;;;5101989;28;20047;-63
2022/07/11 07:19:22;;;;;;;0.65;0.50;;;;;;;;;;5104332;27;20044;-63
2022/07/11 07:21:48;;;;;;;1.48;0.70;;;;;;;;;;5103638;28;20489;-62
2022/07/11 07:24:14;;;;;;;3.33;0.60;;;;;;;;;;5105424;28;20462;-63
2022/07/11 07:26:40;;;;;;;1.10;0.60;;;;;;;;;;5084994;28;20048;-63
2022/07/11 07:29:06;;;;;;;1.98;0.63;;;;;;;;;;5103149;28;20043;-63
2022/07/11 07:31:32;;;;;;;2.40;0.40;;;;;;;;;;5093999;27;20036;-63
2022/07/11 07:33:58;;;;;;;1.58;0.57;;;;;;;;;;5103892;27;20040;-63
2022/07/11 07:36:24;;;;;;;1.42;0.60;;;;;;;;;;5108192;28;20520;-63
2022/07/11 07:38:50;;;;;;;0.63;0.60;;;;;;;;;;5109380;27;20059;-63
2022/07/11 07:41:16;;;;;;;1.27;0.60;;;;;;;;;;5106426;27;20606;-63
2022/07/11 07:43:42;;;;;;;3.92;0.80;;;;;;;;;;5090557;28;20082;-63
2022/07/11 07:46:10;;;;;;;2.03;0.98;;;;;;;;;;5111531;28;20163;-63
2022/07/11 07:48:36;;;;;;;2.63;0.77;;;;;;;;;;5102888;27;20050;-62
2022/07/11 07:51:03;;;;;;;1.92;0.68;;;;;;;;;;5106490;27;20035;-63
2022/07/11 07:53:29;;;;;;;1.50;0.70;;;;;;;;;;5113374;27;20039;-63
2022/07/11 07:55:55;;;;;;;0.77;0.70;;;;;;;;;;5109086;28;20080;-63
2022/07/11 07:58:21;;;;;;;1.73;0.50;;;;;;;;;;5104083;28;20035;-63
2022/07/11 08:03:32;;;;;;;3.47;0.80;;;;;;;;;;5105741;28;20032;-63
2022/07/11 08:05:58;;;;;;;0.85;0.40;;;;;;;;;;5105744;28;20035;-63
2022/07/11 08:08:24;;;;;;;1.70;0.52;;;;;;;;;;5110132;28;20058;-63
2022/07/11 08:10:51;;;;;;;0.57;0.40;;;;;;;;;;5101352;28;20054;-63
2022/07/11 08:13:18;;;;;;;1.45;0.50;;;;;;;;;;5108301;27;20118;-63
2022/07/11 08:15:44;;;;;;;0.65;0.50;;;;;;;;;;5105974;28;20040;-63
2022/07/11 08:18:10;;;;;;;0.65;0.43;;;;;;;;;;5091175;28;20057;-62
2022/07/11 08:20:36;;;;;;;1.15;0.40;;;;;;;;;;5104547;28;20115;-62
2022/07/11 08:23:03;;;;;;;1.60;0.30;;;;;;;;;;5113537;28;20078;-62
2022/07/11 08:25:30;;;;;;;0.50;0.30;;;;;;;;;;5112788;28;20548;-63
2022/07/11 08:27:56;;;;;;;2.03;0.47;;;;;;;;;;5113367;28;20481;-63
2022/07/11 08:30:22;;;;;;;0.50;0.45;;;;;;;;;;5093827;28;20447;-63
2022/07/11 08:32:48;;;;;;;1.25;0.40;;;;;;;;;;5105115;28;20084;-63
2022/07/11 08:35:15;;;;;;;0.43;0.30;;;;;;;;;;5112495;28;20409;-63
2022/07/11 08:37:41;;;;;;;1.02;0.38;;;;;;;;;;5113419;28;20039;-63
2022/07/11 08:40:08;;;;;;;1.40;0.20;;;;;;;;;;5112712;28;20027;-63
2022/07/11 08:42:37;;;;;;;1.60;0.32;;;;;;;;;;5112730;28;20397;-63
2022/07/11 08:45:03;;;;;;;5.82;0.40;;;;;;;;;;5112016;28;20040;-63
2022/07/11 08:47:30;;;;;;;1.27;0.30;;;;;;;;;;5101925;28;20040;-63
2022/07/11 08:49:59;;;;;;;1.33;0.30;;;;;;;;;;5092119;28;20406;-63
2022/07/11 08:52:25;;;;;;;1.08;0.30;;;;;;;;;;5092611;28;20040;-63
2022/07/11 08:54:51;;;;;;;0.60;0.20;;;;;;;;;;5099276;28;20061;-63
2022/07/11 08:57:17;;;;;;;1.63;0.32;;;;;;;;;;5104026;28;20470;-63
2022/07/11 08:59:43;;;;;;;0.65;0.45;;;;;;;;;;5112222;28;20109;-63
2022/07/11 09:02:10;;;;;;;1.70;0.60;;;;;;;;;;5112813;28;20101;-63
2022/07/11 09:04:36;;;;;;;0.80;0.40;;;;;;;;;;5113041;28;20097;-63
2022/07/11 09:07:02;;;;;;;0.55;0.40;;;;;;;;;;5112287;28;20085;-63
2022/07/11 09:09:29;;;;;;;1.75;0.43;;;;;;;;;;5108618;28;20031;-63
2022/07/11 09:11:56;;;;;;;0.93;0.50;;;;;;;;;;5100265;28;20709;-63
2022/07/11 09:14:26;;;;;;;1.85;0.63;;;;;;;;;;5091797;28;20115;-64
2022/07/11 09:17:02;;;;;;;1.13;0.60;;;;;;;;;;5091918;28;20447;-63
2022/07/11 09:19:30;;;;;;;0.40;0.35;;;;;;;;;;5074093;28;20043;-63
2022/07/11 09:25:24;;;;;;;0.60;0.40;;;;;;;;;;5109625;28;20040;-63
2022/07/11 09:28:06;;;;;;;1.13;0.50;;;;;;;;;;5106222;28;20094;-63
2022/07/11 09:30:43;;;;;;;1.58;0.40;;;;;;;;;;5111252;28;20031;-63
2022/07/11 09:33:12;;;;;;;0.55;0.40;;;;;;;;;;5099954;28;20550;-62
2022/07/11 09:35:39;;;;;;;0.65;0.40;;;;;;;;;;5091736;28;20032;-62
2022/07/11 09:38:06;;;;;;;0.70;0.43;;;;;;;;;;5102389;28;20067;-63
2022/07/11 09:40:33;;;;;;;2.28;0.40;;;;;;;;;;5111646;28;20043;-63
2022/07/11 09:42:59;;;;;;;0.65;0.20;;;;;;;;;;5112096;28;20111;-63
2022/07/11 09:45:27;;;;;;;0.40;0.40;;;;;;;;;;5110340;28;20043;-63
2022/07/11 09:47:54;;;;;;;1.13;0.43;;;;;;;;;;5085470;28;20065;-63
2022/07/11 09:50:20;;;;;;;1.00;0.40;;;;;;;;;;5093202;28;20456;-63
2022/07/11 09:53:05;;;;;;;0.10;0.10;;;;;;;;;;5111848;28;20039;-63
2022/07/11 09:55:32;;;;;;;1.65;0.30;;;;;;;;;;5111874;28;20051;-63
2022/07/11 09:57:58;;;;;;;1.02;0.30;;;;;;;;;;5111878;28;20039;-63
2022/07/11 10:00:24;;;;;;;0.22;0.20;;;;;;;;;;5102386;28;20036;-63
2022/07/11 10:02:52;;;;;;;0.45;0.30;;;;;;;;;;5097901;28;20097;-63
2022/07/11 10:05:18;;;;;;;0.57;0.30;;;;;;;;;;5095424;28;20475;-63
2022/07/11 10:07:44;;;;;;;0.20;0.15;;;;;;;;;;5111131;28;20048;-63
2022/07/11 10:10:10;;;;;;;1.10;0.25;;;;;;;;;;5111478;28;20394;-63
2022/07/11 10:12:37;;;;;;;0.15;0.13;;;;;;;;;;5111719;28;20573;-63
2022/07/11 10:15:06;;;;;;;0.57;0.32;;;;;;;;;;5084851;28;20036;-63
2022/07/11 10:17:35;;;;;;;0.30;0.30;;;;;;;;;;5111306;28;20039;-63
2022/07/11 10:20:01;;;;;;;0.43;0.20;;;;;;;;;;5111718;28;20118;-63
2022/07/11 10:22:47;;;;;;;0.73;0.40;;;;;;;;;;5111014;28;20176;-63
2022/07/11 10:25:13;;;;;;;2.55;0.40;;;;;;;;;;5111364;28;20055;-63
2022/07/11 10:27:43;;;;;;;0.88;0.20;;;;;;;;;;5113791;28;20027;-63
2022/07/11 10:30:09;;;;;;;0.40;0.38;;;;;;;;;;5106754;28;20442;-63
2022/07/11 10:32:55;;;;;;;1.00;0.35;;;;;;;;;;5115432;28;20039;-62
2022/07/11 10:35:22;;;;;;;1.40;0.30;;;;;;;;;;5115068;28;20532;-63
2022/07/11 10:37:53;;;;;;;0.73;0.40;;;;;;;;;;5115649;28;20096;-62
2022/07/11 10:40:38;;;;;;;0.43;0.25;;;;;;;;;;5115094;28;20040;-63
2022/07/11 10:43:04;;;;;;;0.50;0.28;;;;;;;;;;5114079;28;20110;-63
2022/07/11 10:45:49;;;;;;;0.88;0.35;;;;;;;;;;5106827;28;20043;-63
2022/07/11 10:48:15;;;;;;;0.75;0.32;;;;;;;;;;5096695;28;20051;-63
2022/07/11 10:50:41;;;;;;;0.95;0.20;;;;;;;;;;5114662;28;20408;-63
2022/07/11 10:53:09;;;;;;;3.03;0.35;;;;;;;;;;5115279;28;20458;-63
2022/07/11 10:55:43;;;;;;;1.38;0.30;;;;;;;;;;5114163;28;20047;-63
2022/07/11 10:58:20;;;;;;;0.70;0.47;;;;;;;;;;5109812;28;20035;-63
2022/07/11 11:00:46;;;;;;;1.45;0.57;;;;;;;;;;5108343;28;20043;-62
2022/07/11 11:03:13;;;;;;;0.82;0.43;;;;;;;;;;5147376;22;20054;-66
2022/07/11 11:05:49;;;;;;;1.65;0.43;;;;;;;;;;5156283;27;20061;-66
2022/07/11 11:08:37;;;;;;;1.73;0.38;;;;;;;;;;5156007;27;20042;-66
2022/07/11 11:11:21;;;;;;;1.08;0.40;;;;;;;;;;5155472;27;20070;-66
2022/07/11 11:14:07;;;;;;;0.38;0.38;;;;;;;;;;5134417;27;20043;-66
2022/07/11 11:16:33;;;;;;;1.10;0.50;;;;;;;;;;5114248;28;20086;-66
2022/07/11 11:19:00;;;;;;;0.45;0.30;;;;;;;;;;5120848;27;20046;-66
2022/07/11 11:21:26;;;;;;;1.30;0.55;;;;;;;;;;5134894;27;20049;-66
2022/07/11 11:24:02;;;;;;;0.68;0.47;;;;;;;;;;5135550;27;20414;-66
2022/07/11 11:26:47;;;;;;;1.10;0.40;;;;;;;;;;5131751;27;20050;-66
2022/07/11 11:29:18;;;;;;;0.77;0.40;;;;;;;;;;5122758;27;20105;-66
2022/07/11 11:31:48;;;;;;;1.70;0.50;;;;;;;;;;5114447;28;20040;-66
2022/07/11 11:34:15;;;;;;;1.40;0.57;;;;;;;;;;5130553;27;20079;-66
2022/07/11 11:36:41;;;;;;;0.73;0.40;;;;;;;;;;5134541;27;20408;-66
2022/07/11 11:39:08;;;;;;;0.82;0.45;;;;;;;;;;5134647;27;20035;-66
2022/07/11 11:41:34;;;;;;;0.35;0.35;;;;;;;;;;5125361;27;20399;-65
2022/07/11 11:44:01;;;;;;;1.95;0.30;;;;;;;;;;5119039;27;20468;-66
2022/07/11 11:46:31;;;;;;;1.63;0.40;;;;;;;;;;5114096;28;20043;-66
2022/07/11 11:49:00;;;;;;;0.20;0.20;;;;;;;;;;5129552;27;20121;-66
2022/07/11 11:51:30;;;;;;;0.50;0.30;;;;;;;;;;5135055;27;20277;-66
2022/07/11 11:53:57;;;;;;;0.52;0.30;;;;;;;;;;5134383;27;20039;-66
2022/07/11 11:56:32;;;;;;;2.67;0.20;;;;;;;;;;5123008;27;20043;-65
2022/07/11 11:59:04;;;;;;;2.03;0.30;;;;;;;;;;5113815;28;20069;-66
2022/07/11 12:01:34;;;;;;;0.98;0.55;;;;;;;;;;5115575;27;20118;-66
2022/07/11 12:04:01;;;;;;;0.30;0.30;;;;;;;;;;5134613;27;20046;-66
2022/07/11 12:06:28;;;;;;;0.43;0.28;;;;;;;;;;5134369;27;20078;-66
2022/07/11 12:09:00;;;;;;;0.75;0.30;;;;;;;;;;5126463;27;20039;-66
2022/07/11 12:11:27;;;;;;;0.98;0.50;;;;;;;;;;5122082;27;20047;-66
2022/07/11 12:13:57;;;;;;;2.10;0.30;;;;;;;;;;5113688;28;20040;-66
2022/07/11 12:16:41;;;;;;;0.57;0.40;;;;;;;;;;5131648;27;20585;-66
2022/07/11 12:19:15;;;;;;;0.35;0.30;;;;;;;;;;5133657;27;20105;-66
2022/07/11 12:21:42;;;;;;;0.63;0.60;;;;;;;;;;5134493;27;20038;-66
2022/07/11 12:24:28;;;;;;;1.17;0.35;;;;;;;;;;5124981;27;20038;-65
2022/07/11 12:26:54;;;;;;;0.50;0.40;;;;;;;;;;5127737;27;20561;-66
2022/07/11 12:29:25;;;;;;;1.00;0.40;;;;;;;;;;5133877;27;20134;-66
2022/07/11 12:31:52;;;;;;;1.25;0.38;;;;;;;;;;5133795;27;20043;-66
2022/07/11 12:34:27;;;;;;;0.70;0.40;;;;;;;;;;5133858;27;20046;-66
2022/07/11 12:37:03;;;;;;;1.88;0.50;;;;;;;;;;5124925;27;20404;-66
2022/07/11 12:39:31;;;;;;;1.25;0.60;;;;;;;;;;5114120;27;20031;-66
2022/07/11 12:41:57;;;;;;;0.60;0.52;;;;;;;;;;5113070;28;20504;-66
2022/07/11 12:47:17;;;;;;;0.88;0.47;;;;;;;;;;5118751;27;20047;-66
2022/07/11 12:49:46;;;;;;;1.00;0.38;;;;;;;;;;5126929;27;20043;-66
2022/07/11 12:52:13;;;;;;;0.63;0.50;;;;;;;;;;5124419;27;20046;-66
2022/07/11 12:54:39;;;;;;;1.08;0.40;;;;;;;;;;5112481;28;20040;-66
2022/07/11 12:57:06;;;;;;;0.60;0.40;;;;;;;;;;5112816;27;20132;-66
2022/07/11 12:59:33;;;;;;;0.40;0.40;;;;;;;;;;5112750;28;20114;-66
2022/07/11 13:02:06;;;;;;;0.32;0.32;;;;;;;;;;5112390;28;20371;-66
2022/07/11 13:04:38;;;;;;;0.40;0.40;;;;;;;;;;5128892;27;20031;-66
2022/07/11 13:10:09;;;;;;;0.30;0.30;;;;;;;;;;5132854;27;20043;-66
2022/07/11 13:12:35;;;;;;;0.75;0.32;;;;;;;;;;5133114;27;20043;-65
2022/07/11 13:15:11;;;;;;;1.00;0.40;;;;;;;;;;5133304;27;20039;-66
2022/07/11 13:17:41;;;;;;;0.65;0.60;;;;;;;;;;5127585;27;20124;-66
2022/07/11 13:20:14;;;;;;;0.50;0.40;;;;;;;;;;5120476;27;20076;-66
2022/07/11 13:22:41;;;;;;;0.63;0.40;;;;;;;;;;5112532;28;20114;-66
2022/07/11 13:25:08;;;;;;;1.63;0.50;;;;;;;;;;5112258;28;20416;-66
2022/07/11 13:27:34;;;;;;;0.50;0.50;;;;;;;;;;5112398;28;20050;-66
2022/07/11 13:30:01;;;;;;;0.40;0.40;;;;;;;;;;5111862;28;20044;-66
2022/07/11 13:32:27;;;;;;;0.43;0.40;;;;;;;;;;5115968;27;20431;-66
2022/07/11 13:34:53;;;;;;;1.45;0.60;;;;;;;;;;5132341;27;20080;-66
2022/07/11 13:37:19;;;;;;;1.23;0.40;;;;;;;;;;5138943;27;20495;-66
2022/07/11 13:39:45;;;;;;;1.23;0.50;;;;;;;;;;5153173;27;20460;-66
2022/07/11 13:42:11;;;;;;;1.95;0.47;;;;;;;;;;5153542;27;20077;-66
2022/07/11 13:44:37;;;;;;;1.13;0.40;;;;;;;;;;5153030;27;20080;-66
2022/07/11 13:47:03;;;;;;;0.93;0.45;;;;;;;;;;5124130;27;20063;-66
2022/07/11 13:49:29;;;;;;;2.25;0.55;;;;;;;;;;5120666;27;20089;-66
2022/07/11 13:51:55;;;;;;;0.50;0.40;;;;;;;;;;5111938;28;20050;-66
2022/07/11 13:54:21;;;;;;;1.33;0.50;;;;;;;;;;5111884;28;20119;-66
2022/07/11 13:56:47;;;;;;;1.27;0.47;;;;;;;;;;5112663;28;20490;-66
2022/07/11 13:59:13;;;;;;;0.47;0.47;;;;;;;;;;5110580;28;20036;-66
2022/07/11 14:01:39;;;;;;;1.55;0.43;;;;;;;;;;5120339;27;20039;-66
2022/07/11 14:04:05;;;;;;;1.65;0.70;;;;;;;;;;5128144;27;20122;-65
2022/07/11 14:06:31;;;;;;;0.70;0.47;;;;;;;;;;5133019;27;20034;-66
2022/07/11 14:08:57;;;;;;;1.00;0.40;;;;;;;;;;5133580;27;20085;-66
2022/07/11 14:11:23;;;;;;;1.17;0.60;;;;;;;;;;5110798;27;20084;-66
2022/07/11 14:13:49;;;;;;;1.05;0.60;;;;;;;;;;5125512;27;20040;-66
2022/07/11 14:16:18;;;;;;;0.52;0.50;;;;;;;;;;5121977;27;20047;-66
2022/07/11 14:18:44;;;;;;;1.00;0.30;;;;;;;;;;5122611;27;20044;-66
2022/07/11 14:21:10;;;;;;;1.58;0.40;;;;;;;;;;5121498;27;20378;-66
2022/07/11 14:23:36;;;;;;;0.30;0.30;;;;;;;;;;5126456;27;20047;-65
2022/07/11 14:26:05;;;;;;;1.13;0.40;;;;;;;;;;5136349;27;20084;-65
2022/07/11 14:28:32;;;;;;;1.05;0.32;;;;;;;;;;5130792;27;20039;-66
2022/07/11 14:30:58;;;;;;;0.68;0.60;;;;;;;;;;5131659;27;20051;-66
2022/07/11 14:33:24;;;;;;;0.45;0.40;;;;;;;;;;5132191;27;20031;-66
2022/07/11 14:35:50;;;;;;;0.73;0.50;;;;;;;;;;5127127;27;20042;-66
2022/07/11 14:38:16;;;;;;;1.42;0.47;;;;;;;;;;5130333;27;20047;-66
2022/07/11 14:40:43;;;;;;;2.10;0.50;;;;;;;;;;5128366;27;20434;-66
2022/07/11 14:43:09;;;;;;;0.50;0.32;;;;;;;;;;5129162;27;20047;-66
2022/07/11 14:45:35;;;;;;;1.38;0.50;;;;;;;;;;5128461;27;20126;-66
2022/07/11 14:48:01;;;;;;;0.40;0.40;;;;;;;;;;5131053;27;20046;-66
2022/07/11 14:50:27;;;;;;;1.38;0.40;;;;;;;;;;5124725;27;20035;-66
2022/07/11 14:52:53;;;;;;;1.27;0.40;;;;;;;;;;5128581;27;20035;-66
2022/07/11 14:55:19;;;;;;;0.30;0.30;;;;;;;;;;5128920;27;20099;-66